createdAt,value
2018-02-07T00:01:27.367Z,100328.22
2018-02-07T00:03:54.935Z,100324.77
2018-02-07T00:06:22.483Z,100330.38
2018-02-07T00:08:50.459Z,100327.69
2018-02-07T00:11:17.994Z,100326.82
2018-02-07T00:13:45.935Z,100330.73
2018-02-07T00:16:13.474Z,100333.34
2018-02-07T00:18:41.863Z,100325.98
2018-02-07T00:21:09.447Z,100324.66
2018-02-07T00:23:37.022Z,100319.36
2018-02-07T00:26:04.598Z,100323.25
2018-02-07T00:28:32.146Z,100317.60
2018-02-07T00:30:59.694Z,100319.75
2018-02-07T00:33:27.286Z,100320.17
2018-02-07T00:35:54.842Z,100321.09
2018-02-07T00:38:22.389Z,100322.45
2018-02-07T00:40:49.973Z,100319.02
2018-02-07T00:43:17.554Z,100322.48
2018-02-07T00:45:45.098Z,100323.34
2018-02-07T00:48:12.687Z,100320.90
2018-02-07T00:50:40.243Z,100318.33
2018-02-07T00:53:07.786Z,100319.16
2018-02-07T00:55:35.370Z,100316.52
2018-02-07T00:58:02.913Z,100319.55
2018-02-07T01:00:30.472Z,100312.23
2018-02-07T01:02:58.049Z,100312.73
2018-02-07T01:05:25.603Z,100309.70
2018-02-07T01:07:53.262Z,100313.58
2018-02-07T01:10:20.801Z,100310.61
2018-02-07T01:12:48.355Z,100314.52
2018-02-07T01:15:15.933Z,100308.45
2018-02-07T01:17:43.517Z,100317.94
2018-02-07T01:20:11.063Z,100306.26
2018-02-07T01:22:38.604Z,100292.41
2018-02-07T01:25:06.223Z,100279.48
2018-02-07T01:27:34.247Z,100289.45
2018-02-07T01:30:02.100Z,100287.29
2018-02-07T01:32:29.691Z,100289.00
2018-02-07T01:34:57.544Z,100280.77
2018-02-07T01:37:25.125Z,100284.68
2018-02-07T01:39:52.675Z,100280.73
2018-02-07T01:42:20.257Z,100269.44
2018-02-07T01:44:47.797Z,100274.19
2018-02-07T01:47:15.337Z,100273.73
2018-02-07T01:49:43.137Z,100264.19
2018-02-07T01:52:10.692Z,100265.47
2018-02-07T01:54:38.286Z,100268.88
2018-02-07T01:57:05.821Z,100262.32
2018-02-07T01:59:33.923Z,100260.98
2018-02-07T02:02:01.471Z,100255.74
2018-02-07T02:04:29.018Z,100250.52
2018-02-07T02:06:56.597Z,100247.49
2018-02-07T02:09:24.178Z,100247.52
2018-02-07T02:11:52.026Z,100239.26
2018-02-07T02:14:19.746Z,100244.44
2018-02-07T02:16:47.281Z,100257.31
2018-02-07T02:19:14.868Z,100256.38
2018-02-07T02:21:42.419Z,100266.19
2018-02-07T02:24:10.006Z,100267.70
2018-02-07T02:26:37.555Z,100259.18
2018-02-07T02:29:05.147Z,100255.41
2018-02-07T02:31:32.925Z,100260.55
2018-02-07T02:34:00.512Z,100252.58
2018-02-07T02:36:39.954Z,100252.23
2018-02-07T02:39:07.546Z,100268.00
2018-02-07T02:41:35.086Z,100275.14
2018-02-07T02:44:02.688Z,100278.84
2018-02-07T02:46:30.278Z,100277.11
2018-02-07T02:48:57.822Z,100280.09
2018-02-07T02:51:25.406Z,100275.94
2018-02-07T02:53:53.238Z,100261.74
2018-02-07T02:56:20.823Z,100252.69
2018-02-07T02:58:48.407Z,100267.81
2018-02-07T03:01:16.233Z,100273.88
2018-02-07T03:03:43.831Z,100260.87
2018-02-07T03:06:11.418Z,100266.09
2018-02-07T03:08:38.953Z,100252.69
2018-02-07T03:11:06.560Z,100249.66
2018-02-07T03:13:34.102Z,100244.88
2018-02-07T03:16:01.654Z,100235.36
2018-02-07T03:18:29.242Z,100233.64
2018-02-07T03:20:56.826Z,100248.73
2018-02-07T03:23:24.422Z,100259.14
2018-02-07T03:25:52.001Z,100263.73
2018-02-07T03:28:19.547Z,100265.09
2018-02-07T03:30:47.125Z,100267.83
2018-02-07T03:33:14.749Z,100278.86
2018-02-07T03:35:42.330Z,100262.55
2018-02-07T03:38:09.865Z,100271.28
2018-02-07T03:40:37.455Z,100266.93
2018-02-07T03:43:04.993Z,100266.89
2018-02-07T03:45:32.856Z,100262.58
2018-02-07T03:48:00.459Z,100269.91
2018-02-07T03:50:28.005Z,100259.02
2018-02-07T03:52:55.559Z,100260.67
2018-02-07T03:55:23.133Z,100257.65
2018-02-07T03:57:50.743Z,100269.33
2018-02-07T04:00:18.322Z,100264.34
2018-02-07T04:02:45.910Z,100256.58
2018-02-07T04:05:13.454Z,100243.56
2018-02-07T04:07:41.068Z,100245.23
2018-02-07T04:10:09.140Z,100241.71
2018-02-07T04:12:36.731Z,100238.64
2018-02-07T04:15:04.499Z,100237.34
2018-02-07T04:17:32.262Z,100233.87
2018-02-07T04:19:59.843Z,100242.97
2018-02-07T04:22:27.386Z,100245.10
2018-02-07T04:24:54.978Z,100246.77
2018-02-07T04:27:22.521Z,100235.89
2018-02-07T04:29:50.095Z,100220.70
2018-02-07T04:32:18.510Z,100222.06
2018-02-07T04:34:46.047Z,100234.73
2018-02-07T04:37:13.628Z,100268.23
2018-02-07T04:39:41.170Z,100260.02
2018-02-07T04:42:08.745Z,100247.80
2018-02-07T04:44:36.312Z,100214.63
2018-02-07T04:47:03.899Z,100202.04
2018-02-07T04:49:31.861Z,100201.55
2018-02-07T04:51:59.434Z,100216.20
2018-02-07T04:54:27.015Z,100227.83
2018-02-07T04:56:54.590Z,100233.38
2018-02-07T04:59:22.715Z,100229.51
2018-02-07T05:01:50.265Z,100226.37
2018-02-07T05:04:17.851Z,100206.77
2018-02-07T05:06:45.396Z,100202.78
2018-02-07T05:09:12.982Z,100212.18
2018-02-07T05:11:40.800Z,100202.19
2018-02-07T05:14:08.740Z,100187.77
2018-02-07T05:16:36.278Z,100169.09
2018-02-07T05:19:04.347Z,100163.13
2018-02-07T05:21:31.912Z,100195.56
2018-02-07T05:23:59.441Z,100210.83
2018-02-07T05:26:27.026Z,100206.06
2018-02-07T05:28:54.567Z,100218.14
2018-02-07T05:31:22.157Z,100218.36
2018-02-07T05:33:49.690Z,100233.22
2018-02-07T05:36:17.229Z,100240.49
2018-02-07T05:38:45.074Z,100248.22
2018-02-07T05:41:12.610Z,100249.20
2018-02-07T05:43:40.282Z,100242.30
2018-02-07T05:46:07.962Z,100249.66
2018-02-07T05:48:35.497Z,100251.35
2018-02-07T05:51:03.050Z,100262.58
2018-02-07T05:53:30.649Z,100275.62
2018-02-07T05:55:58.250Z,100277.24
2018-02-07T05:58:25.785Z,100269.97
2018-02-07T06:00:53.336Z,100279.05
2018-02-07T06:03:20.928Z,100278.62
2018-02-07T06:05:48.485Z,100260.02
2018-02-07T06:08:16.017Z,100262.98
2018-02-07T06:10:43.607Z,100271.53
2018-02-07T06:13:11.141Z,100262.31
2018-02-07T06:15:39.508Z,100256.09
2018-02-07T06:18:07.099Z,100272.49
2018-02-07T06:20:34.860Z,100275.48
2018-02-07T06:23:02.449Z,100266.72
2018-02-07T06:25:30.793Z,100269.17
2018-02-07T06:27:58.338Z,100271.25
2018-02-07T06:30:25.981Z,100266.37
2018-02-07T06:32:53.502Z,100270.16
2018-02-07T06:35:21.233Z,100262.22
2018-02-07T06:37:48.792Z,100253.38
2018-02-07T06:40:16.330Z,100246.77
2018-02-07T06:42:43.919Z,100248.38
2018-02-07T06:45:11.522Z,100258.30
2018-02-07T06:47:39.187Z,100249.49
2018-02-07T06:50:06.878Z,100241.61
2018-02-07T06:52:34.612Z,100249.25
2018-02-07T06:55:02.473Z,100263.89
2018-02-07T06:57:30.102Z,100263.87
2018-02-07T06:59:58.875Z,100264.31
2018-02-07T07:02:26.632Z,100269.91
2018-02-07T07:04:54.216Z,100258.56
2018-02-07T07:07:21.763Z,100253.59
2018-02-07T07:09:49.350Z,100264.80
2018-02-07T07:12:16.900Z,100258.17
2018-02-07T07:14:45.146Z,100258.15
2018-02-07T07:17:12.733Z,100248.62
2018-02-07T07:19:40.676Z,100254.12
2018-02-07T07:22:08.285Z,100242.71
2018-02-07T07:24:36.133Z,100237.47
2018-02-07T07:27:05.394Z,100238.73
2018-02-07T07:29:33.011Z,100241.95
2018-02-07T07:32:00.608Z,100232.12
2018-02-07T07:34:28.673Z,100230.65
2018-02-07T07:36:56.956Z,100235.53
2018-02-07T07:39:24.505Z,100238.66
2018-02-07T07:41:52.060Z,100238.25
2018-02-07T07:44:19.646Z,100225.24
2018-02-07T07:46:47.197Z,100233.51
2018-02-07T07:49:16.378Z,100233.09
2018-02-07T07:51:44.085Z,100222.05
2018-02-07T07:54:11.678Z,100224.02
2018-02-07T07:56:39.239Z,100218.78
2018-02-07T07:59:06.832Z,100215.80
2018-02-07T08:01:34.425Z,100205.84
2018-02-07T08:04:02.084Z,100205.44
2018-02-07T08:06:29.630Z,100203.67
2018-02-07T08:08:57.231Z,100205.42
2018-02-07T08:11:25.549Z,100212.81
2018-02-07T08:13:53.396Z,100224.19
2018-02-07T08:16:20.992Z,100217.20
2018-02-07T08:18:48.673Z,100213.52
2018-02-07T08:21:16.382Z,100208.97
2018-02-07T08:23:44.392Z,100203.75
2018-02-07T08:26:11.978Z,100199.75
2018-02-07T08:28:41.216Z,100197.16
2018-02-07T08:31:08.806Z,100204.14
2018-02-07T08:33:36.480Z,100193.80
2018-02-07T08:36:04.070Z,100193.87
2018-02-07T08:38:31.907Z,100199.96
2018-02-07T08:40:59.725Z,100202.59
2018-02-07T08:43:27.314Z,100187.13
2018-02-07T08:45:54.854Z,100182.59
2018-02-07T08:48:22.428Z,100176.08
2018-02-07T08:50:51.044Z,100190.53
2018-02-07T08:53:18.647Z,100194.96
2018-02-07T08:55:46.245Z,100186.48
2018-02-07T08:58:14.021Z,100183.13
2018-02-07T09:00:41.578Z,100181.53
2018-02-07T09:03:09.164Z,100186.45
2018-02-07T09:05:37.856Z,100175.77
2018-02-07T09:08:05.415Z,100175.25
2018-02-07T09:10:33.144Z,100174.88
2018-02-07T09:13:01.524Z,100161.49
2018-02-07T09:15:29.250Z,100162.89
2018-02-07T09:17:57.552Z,100166.88
2018-02-07T09:20:25.444Z,100186.13
2018-02-07T09:22:53.044Z,100191.44
2018-02-07T09:25:21.573Z,100183.42
2018-02-07T09:27:49.173Z,100178.42
2018-02-07T09:30:16.719Z,100169.93
2018-02-07T09:32:44.626Z,100168.34
2018-02-07T09:35:12.213Z,100184.77
2018-02-07T09:37:40.278Z,100200.64
2018-02-07T09:40:07.858Z,100182.94
2018-02-07T09:42:35.454Z,100172.37
2018-02-07T09:45:03.008Z,100177.17
2018-02-07T09:47:31.287Z,100180.73
2018-02-07T09:49:59.834Z,100171.34
2018-02-07T09:52:27.588Z,100174.33
2018-02-07T09:54:55.182Z,100165.14
2018-02-07T09:57:22.727Z,100162.03
2018-02-07T09:59:50.315Z,100149.17
2018-02-07T10:02:18.851Z,100153.75
2018-02-07T10:04:47.619Z,100139.78
2018-02-07T10:07:15.179Z,100138.39
2018-02-07T10:09:43.016Z,100128.78
2018-02-07T10:12:11.327Z,100113.38
2018-02-07T10:14:38.926Z,100096.73
2018-02-07T10:17:06.480Z,100097.61
2018-02-07T10:19:34.034Z,100082.86
2018-02-07T10:22:01.624Z,100066.70
2018-02-07T10:24:29.576Z,100055.78
2018-02-07T10:26:57.162Z,100066.19
2018-02-07T10:29:25.004Z,100079.73
2018-02-07T10:31:52.549Z,100092.53
2018-02-07T10:34:20.138Z,100087.45
2018-02-07T10:36:47.704Z,100079.16
2018-02-07T10:39:15.472Z,100086.55
2018-02-07T10:41:43.054Z,100073.59
2018-02-07T10:44:10.604Z,100068.40
2018-02-07T10:46:38.210Z,100065.33
2018-02-07T10:49:06.795Z,100064.10
2018-02-07T10:51:34.439Z,100056.77
2018-02-07T10:54:02.965Z,100043.51
2018-02-07T10:56:30.875Z,100044.70
2018-02-07T10:58:58.412Z,100048.07
2018-02-07T11:01:25.986Z,100038.91
2018-02-07T11:03:54.505Z,100030.67
2018-02-07T11:06:22.056Z,100022.83
2018-02-07T11:08:50.828Z,100022.65
2018-02-07T11:11:18.439Z,100027.36
2018-02-07T11:13:46.395Z,100021.95
2018-02-07T11:16:14.878Z,100014.76
2018-02-07T11:18:42.755Z,100019.54
2018-02-07T11:21:12.630Z,100018.91
2018-02-07T11:23:40.741Z,100027.16
2018-02-07T11:26:08.959Z,100029.20
2018-02-07T11:28:37.262Z,100020.22
2018-02-07T11:31:04.865Z,100019.92
2018-02-07T11:33:33.586Z,100013.02
2018-02-07T11:36:01.986Z,100012.27
2018-02-07T11:38:30.063Z,100008.47
2018-02-07T11:40:58.038Z,100006.05
2018-02-07T11:43:25.587Z,99994.86
2018-02-07T11:45:53.852Z,99982.64
2018-02-07T11:48:21.575Z,99966.60
2018-02-07T11:50:49.126Z,99970.45
2018-02-07T11:53:16.683Z,99963.03
2018-02-07T11:55:44.284Z,99956.77
2018-02-07T11:58:11.882Z,99966.52
2018-02-07T12:00:39.475Z,99970.77
2018-02-07T12:03:07.039Z,99968.81
2018-02-07T12:05:35.170Z,99955.58
2018-02-07T12:08:02.767Z,99960.22
2018-02-07T12:10:30.375Z,99948.11
2018-02-07T12:12:57.909Z,99936.91
2018-02-07T12:15:25.610Z,99932.54
2018-02-07T12:17:53.206Z,99933.34
2018-02-07T12:20:20.827Z,99930.01
2018-02-07T12:22:48.386Z,99932.77
2018-02-07T12:25:15.937Z,99934.91
2018-02-07T12:27:43.531Z,99930.22
2018-02-07T12:30:11.339Z,99927.02
2018-02-07T12:32:38.923Z,99928.22
2018-02-07T12:35:06.482Z,99928.52
2018-02-07T12:37:34.903Z,99916.98
2018-02-07T12:40:04.138Z,99905.28
2018-02-07T12:42:31.725Z,99904.84
2018-02-07T12:44:59.313Z,99893.92
2018-02-07T12:47:27.780Z,99883.61
2018-02-07T12:49:55.379Z,99897.28
2018-02-07T12:52:22.918Z,99897.69
2018-02-07T12:54:50.538Z,99897.50
2018-02-07T12:57:18.078Z,99904.84
2018-02-07T12:59:45.683Z,99902.05
2018-02-07T13:02:13.231Z,99883.08
2018-02-07T13:04:40.768Z,99889.16
2018-02-07T13:07:08.355Z,99884.03
2018-02-07T13:09:36.186Z,99895.36
2018-02-07T13:12:04.799Z,99896.30
2018-02-07T13:14:32.382Z,99885.89
2018-02-07T13:17:00.820Z,99879.98
2018-02-07T13:19:28.386Z,99873.83
2018-02-07T13:21:56.135Z,99870.69
2018-02-07T13:24:23.721Z,99876.08
2018-02-07T13:26:51.302Z,99872.52
2018-02-07T13:29:19.286Z,99859.06
2018-02-07T13:31:46.887Z,99853.53
2018-02-07T13:34:14.475Z,99862.25
2018-02-07T13:36:42.429Z,99862.30
2018-02-07T13:39:10.016Z,99847.77
2018-02-07T13:41:37.559Z,99876.45
2018-02-07T13:44:05.143Z,99892.73
2018-02-07T13:46:32.749Z,99887.61
2018-02-07T13:49:00.461Z,99883.55
2018-02-07T13:51:28.308Z,99875.98
2018-02-07T13:53:55.850Z,99882.36
2018-02-07T13:56:23.453Z,99882.38
2018-02-07T13:58:50.987Z,99877.23
2018-02-07T14:01:18.592Z,99886.59
2018-02-07T14:03:46.326Z,99877.41
2018-02-07T14:06:13.905Z,99892.59
2018-02-07T14:08:41.446Z,99894.02
2018-02-07T14:11:08.990Z,99896.05
2018-02-07T14:13:36.587Z,99888.63
2018-02-07T14:16:04.122Z,99874.40
2018-02-07T14:18:31.674Z,99869.63
2018-02-07T14:20:59.468Z,99880.48
2018-02-07T14:23:27.024Z,99867.16
2018-02-07T14:25:54.558Z,99844.89
2018-02-07T14:28:22.236Z,99840.74
2018-02-07T14:30:49.771Z,99826.81
2018-02-07T14:33:17.313Z,99838.20
2018-02-07T14:35:45.280Z,99863.53
2018-02-07T14:38:12.817Z,99852.61
2018-02-07T14:40:40.471Z,99834.18
2018-02-07T14:43:08.059Z,99853.80
2018-02-07T14:45:36.448Z,99859.43
2018-02-07T14:48:04.035Z,99858.84
2018-02-07T14:50:31.699Z,99845.62
2018-02-07T14:52:59.977Z,99851.86
2018-02-07T14:55:27.534Z,99846.81
2018-02-07T14:57:55.326Z,99861.48
2018-02-07T15:00:23.521Z,99844.80
2018-02-07T15:02:51.989Z,99838.06
2018-02-07T15:05:20.296Z,99846.14
2018-02-07T15:07:47.889Z,99843.53
2018-02-07T15:10:15.426Z,99801.41
2018-02-07T15:12:42.953Z,99802.73
2018-02-07T15:15:10.917Z,99806.22
2018-02-07T15:17:38.477Z,99812.06
2018-02-07T15:20:06.038Z,99811.70
2018-02-07T15:22:33.622Z,99791.24
2018-02-07T15:25:03.857Z,99798.11
2018-02-07T15:27:31.429Z,99825.81
2018-02-07T15:29:59.370Z,99825.13
2018-02-07T15:32:27.955Z,99818.39
2018-02-07T15:34:55.557Z,99814.98
2018-02-07T15:37:23.101Z,99807.92
2018-02-07T15:39:50.647Z,99797.52
2018-02-07T15:42:18.783Z,99796.05
2018-02-07T15:44:46.322Z,99804.22
2018-02-07T15:47:15.190Z,99797.25
2018-02-07T15:49:42.785Z,99797.84
2018-02-07T15:52:10.369Z,99808.09
2018-02-07T15:54:37.902Z,99813.55
2018-02-07T15:57:06.872Z,99811.94
2018-02-07T15:59:35.852Z,99816.55
2018-02-07T16:02:04.481Z,99810.95
2018-02-07T16:04:32.131Z,99804.64
2018-02-07T16:07:00.029Z,99823.46
2018-02-07T16:09:27.626Z,99834.63
2018-02-07T16:11:55.609Z,99832.55
2018-02-07T16:14:23.939Z,99829.91
2018-02-07T16:16:52.370Z,99840.72
2018-02-07T16:19:19.995Z,99842.42
2018-02-07T16:21:48.771Z,99833.94
2018-02-07T16:24:16.611Z,99840.69
2018-02-07T16:26:44.195Z,99826.09
2018-02-07T16:29:11.730Z,99834.36
2018-02-07T16:31:39.323Z,99825.37
2018-02-07T16:34:07.013Z,99815.66
2018-02-07T16:36:34.592Z,99827.20
2018-02-07T16:39:02.130Z,99839.00
2018-02-07T16:41:30.308Z,99824.95
2018-02-07T16:43:57.898Z,99834.42
2018-02-07T16:46:25.452Z,99826.73
2018-02-07T16:48:52.986Z,99822.81
2018-02-07T16:51:20.990Z,99821.70
2018-02-07T16:53:49.982Z,99822.72
2018-02-07T16:56:17.845Z,99822.27
2018-02-07T16:58:46.290Z,99815.63
2018-02-07T17:01:14.639Z,99824.83
2018-02-07T17:03:42.634Z,99827.16
2018-02-07T17:06:10.723Z,99824.24
2018-02-07T17:08:39.254Z,99815.50
2018-02-07T17:11:07.760Z,99816.44
2018-02-07T17:13:35.695Z,99824.20
2018-02-07T17:16:03.279Z,99819.33
2018-02-07T17:18:31.381Z,99822.21
2018-02-07T17:21:00.069Z,99836.87
2018-02-07T17:23:27.619Z,99833.39
2018-02-07T17:25:55.357Z,99840.75
2018-02-07T17:28:23.918Z,99833.77
2018-02-07T17:30:51.454Z,99830.66
2018-02-07T17:33:19.083Z,99844.11
2018-02-07T17:35:47.260Z,99838.38
2018-02-07T17:38:15.915Z,99839.10
2018-02-07T17:40:43.765Z,99830.31
2018-02-07T17:43:11.322Z,99831.30
2018-02-07T17:45:38.926Z,99815.38
2018-02-07T17:48:07.318Z,99817.33
2018-02-07T17:50:34.983Z,99833.47
2018-02-07T17:53:03.339Z,99821.98
2018-02-07T17:55:31.949Z,99833.27
2018-02-07T17:58:01.756Z,99831.48
2018-02-07T18:00:30.220Z,99815.75
2018-02-07T18:02:58.883Z,99805.80
2018-02-07T18:05:27.655Z,99815.38
2018-02-07T18:07:56.380Z,99820.02
2018-02-07T18:10:23.914Z,99819.35
2018-02-07T18:12:52.376Z,99805.05
2018-02-07T18:15:19.951Z,99804.89
2018-02-07T18:17:48.631Z,99797.41
2018-02-07T18:20:16.522Z,99788.72
2018-02-07T18:22:44.054Z,99788.34
2018-02-07T18:25:12.192Z,99781.70
2018-02-07T18:27:40.147Z,99778.46
2018-02-07T18:30:07.722Z,99781.86
2018-02-07T18:32:35.502Z,99780.52
2018-02-07T18:35:03.326Z,99778.08
2018-02-07T18:37:31.066Z,99766.91
2018-02-07T18:39:58.986Z,99765.66
2018-02-07T18:42:26.854Z,99753.34
2018-02-07T18:44:55.454Z,99749.16
2018-02-07T18:47:25.350Z,99743.14
2018-02-07T18:49:52.934Z,99745.86
2018-02-07T18:52:20.518Z,99732.56
2018-02-07T18:54:49.262Z,99726.55
2018-02-07T18:57:17.976Z,99710.27
2018-02-07T18:59:45.547Z,99708.92
2018-02-07T19:02:13.940Z,99719.55
2018-02-07T19:04:42.017Z,99703.34
2018-02-07T19:07:09.545Z,99707.07
2018-02-07T19:09:37.145Z,99706.60
2018-02-07T19:12:04.681Z,99708.47
2018-02-07T19:14:32.219Z,99694.70
2018-02-07T19:16:59.814Z,99695.08
2018-02-07T19:19:27.463Z,99696.05
2018-02-07T19:21:55.466Z,99688.34
2018-02-07T19:24:23.842Z,99672.02
2018-02-07T19:26:52.380Z,99667.06
2018-02-07T19:29:20.295Z,99673.37
2018-02-07T19:31:47.831Z,99673.63
2018-02-07T19:34:15.753Z,99657.66
2018-02-07T19:36:45.867Z,99663.47
2018-02-07T19:39:15.089Z,99666.58
2018-02-07T19:41:43.506Z,99663.45
2018-02-07T19:44:12.825Z,99671.52
2018-02-07T19:46:40.546Z,99665.59
2018-02-07T19:49:08.103Z,99661.48
2018-02-07T19:51:35.691Z,99656.05
2018-02-07T19:54:04.675Z,99657.39
2018-02-07T19:56:33.666Z,99647.10
2018-02-07T19:59:01.394Z,99646.84
2018-02-07T20:01:29.223Z,99637.92
2018-02-07T20:03:56.814Z,99627.34
2018-02-07T20:06:26.185Z,99629.78
2018-02-07T20:08:53.844Z,99636.64
2018-02-07T20:11:23.253Z,99632.69
2018-02-07T20:13:51.612Z,99634.39
2018-02-07T20:16:20.156Z,99652.24
2018-02-07T20:18:49.769Z,99634.43
2018-02-07T20:21:17.687Z,99617.84
2018-02-07T20:23:45.655Z,99625.65
2018-02-07T20:26:13.608Z,99599.78
2018-02-07T20:28:42.592Z,99581.92
2018-02-07T20:31:10.130Z,99607.42
2018-02-07T20:33:37.912Z,99617.16
2018-02-07T20:36:06.936Z,99596.13
2018-02-07T20:38:34.699Z,99586.59
2018-02-07T20:41:02.245Z,99587.04
2018-02-07T20:43:31.035Z,99581.73
2018-02-07T20:45:59.874Z,99590.09
2018-02-07T20:48:28.417Z,99596.64
2018-02-07T20:50:56.562Z,99572.65
2018-02-07T20:53:24.953Z,99565.17
2018-02-07T20:55:52.703Z,99595.79
2018-02-07T20:58:20.462Z,99577.08
2018-02-07T21:00:48.376Z,99561.34
2018-02-07T21:03:16.407Z,99567.84
2018-02-07T21:05:44.849Z,99579.59
2018-02-07T21:08:12.421Z,99574.16
2018-02-07T21:10:39.967Z,99555.06
2018-02-07T21:13:07.557Z,99568.30
2018-02-07T21:15:35.445Z,99549.81
2018-02-07T21:18:02.991Z,99570.95
2018-02-07T21:20:30.575Z,99550.72
2018-02-07T21:22:58.230Z,99536.09
2018-02-07T21:25:27.406Z,99539.23
2018-02-07T21:27:55.207Z,99547.98
2018-02-07T21:30:24.734Z,99565.14
2018-02-07T21:32:52.322Z,99562.69
2018-02-07T21:35:19.857Z,99562.34
2018-02-07T21:37:47.404Z,99561.59
2018-02-07T21:40:15.058Z,99563.53
2018-02-07T21:42:43.682Z,99550.81
2018-02-07T21:45:11.770Z,99550.95
2018-02-07T21:47:39.792Z,99541.93
2018-02-07T21:50:11.271Z,99528.56
2018-02-07T21:52:39.366Z,99529.63
2018-02-07T21:55:06.902Z,99517.01
2018-02-07T21:57:34.473Z,99505.66
2018-02-07T22:00:02.055Z,99493.86
2018-02-07T22:02:29.611Z,99502.03
2018-02-07T22:04:57.203Z,99493.66
2018-02-07T22:07:24.749Z,99500.27
2018-02-07T22:09:52.285Z,99499.79
2018-02-07T22:12:19.872Z,99504.55
2018-02-07T22:14:47.458Z,99483.03
2018-02-07T22:17:15.053Z,99473.65
2018-02-07T22:19:43.174Z,99465.83
2018-02-07T22:22:11.569Z,99451.64
2018-02-07T22:24:39.105Z,99451.36
2018-02-07T22:27:06.683Z,99452.70
2018-02-07T22:29:34.275Z,99458.32
2018-02-07T22:32:01.862Z,99462.84
2018-02-07T22:34:29.445Z,99450.64
2018-02-07T22:36:57.079Z,99448.00
2018-02-07T22:39:24.623Z,99444.98
2018-02-07T22:41:52.162Z,99433.66
2018-02-07T22:44:19.889Z,99438.76
2018-02-07T22:46:47.421Z,99423.99
2018-02-07T22:49:15.006Z,99416.92
2018-02-07T22:51:42.560Z,99435.13
2018-02-07T22:54:10.646Z,99405.33
2018-02-07T22:56:38.240Z,99395.97
2018-02-07T22:59:06.172Z,99397.96
2018-02-07T23:01:33.759Z,99408.16
2018-02-07T23:04:01.290Z,99383.73
2018-02-07T23:06:28.994Z,99381.84
2018-02-07T23:08:56.570Z,99371.33
2018-02-07T23:11:24.110Z,99360.41
2018-02-07T23:13:51.696Z,99342.08
2018-02-07T23:16:19.269Z,99341.20
2018-02-07T23:18:46.814Z,99355.23
2018-02-07T23:21:14.385Z,99362.20
2018-02-07T23:23:41.913Z,99355.77
2018-02-07T23:26:09.499Z,99348.16
2018-02-07T23:28:37.189Z,99327.02
2018-02-07T23:31:04.742Z,99326.20
2018-02-07T23:33:32.314Z,99322.34
2018-02-07T23:35:59.854Z,99319.83
2018-02-07T23:38:27.455Z,99289.00
2018-02-07T23:40:54.993Z,99299.19
2018-02-07T23:43:22.581Z,99315.70
2018-02-07T23:45:50.174Z,99311.05
2018-02-07T23:48:17.718Z,99301.95
2018-02-07T23:50:45.247Z,99294.94
2018-02-07T23:53:12.835Z,99292.52
2018-02-07T23:55:40.373Z,99308.80
2018-02-07T23:58:08.006Z,99317.94
